Time;durP1;ratioP1;P1;durP2;ratioP2;P2;SDS_P1;SDS_P2;PMS_P1;PMS_P2;Temp;Humidity;BMP_temperature;BMP_pressure;BME280_temperature;BME280_humidity;BME280_pressure;Samples;Min_cycle;Max_cycle;Signal;HPM_P1;HPM_P2
2022/10/20 00:00:08;;;;;;;13.97;7.80;;;;;;;;;;5036963;28;20465;-79
2022/10/20 00:02:34;;;;;;;11.93;7.60;;;;;;;;;;5036896;28;20033;-79
2022/10/20 00:05:02;;;;;;;14.87;8.50;;;;;;;;;;5037792;28;20029;-79
2022/10/20 00:07:28;;;;;;;15.67;8.10;;;;;;;;;;5055100;28;20033;-80
2022/10/20 00:09:56;;;;;;;10.80;7.80;;;;;;;;;;5037152;28;20029;-79
2022/10/20 00:12:22;;;;;;;14.40;8.37;;;;;;;;;;5037377;28;20029;-80
2022/10/20 00:14:48;;;;;;;17.47;7.17;;;;;;;;;;5037399;28;20040;-79
2022/10/20 00:17:14;;;;;;;12.87;8.00;;;;;;;;;;5037810;28;20029;-79
2022/10/20 00:19:40;;;;;;;9.23;7.07;;;;;;;;;;5037922;28;20029;-79
2022/10/20 00:22:06;;;;;;;14.77;7.80;;;;;;;;;;5038334;28;20048;-79
2022/10/20 00:24:35;;;;;;;9.53;6.70;;;;;;;;;;5037642;28;20331;-79
2022/10/20 00:27:01;;;;;;;19.57;7.83;;;;;;;;;;5037111;28;20365;-79
2022/10/20 00:29:27;;;;;;;15.70;7.63;;;;;;;;;;5036905;28;20515;-79
2022/10/20 00:31:53;;;;;;;13.53;6.93;;;;;;;;;;5057732;28;20029;-78
2022/10/20 00:34:19;;;;;;;12.90;7.13;;;;;;;;;;5041921;28;20088;-79
2022/10/20 00:36:45;;;;;;;20.43;7.40;;;;;;;;;;5042878;28;20392;-79
2022/10/20 00:39:11;;;;;;;14.77;7.07;;;;;;;;;;5040203;28;20033;-78
2022/10/20 00:41:37;;;;;;;10.60;6.50;;;;;;;;;;5040622;28;20025;-79
2022/10/20 00:44:22;;;;;;;12.53;6.67;;;;;;;;;;5040823;28;20353;-79
2022/10/20 00:46:48;;;;;;;12.50;7.07;;;;;;;;;;5040182;28;20029;-79
2022/10/20 00:49:21;;;;;;;11.73;7.53;;;;;;;;;;5038896;28;20053;-78
2022/10/20 00:51:48;;;;;;;12.43;7.40;;;;;;;;;;5045066;28;20051;-79
2022/10/20 00:54:16;;;;;;;12.17;8.03;;;;;;;;;;5039831;28;20036;-79
2022/10/20 00:56:43;;;;;;;13.87;7.77;;;;;;;;;;5040431;28;20064;-79
2022/10/20 00:59:09;;;;;;;16.57;8.87;;;;;;;;;;5042637;28;20408;-79
2022/10/20 01:01:35;;;;;;;12.40;8.37;;;;;;;;;;5040014;28;20025;-79
2022/10/20 01:04:02;;;;;;;14.07;8.90;;;;;;;;;;5040430;28;20081;-79
2022/10/20 01:06:28;;;;;;;12.70;8.00;;;;;;;;;;5040229;28;20071;-80
2022/10/20 01:08:54;;;;;;;14.23;9.07;;;;;;;;;;5040790;28;20029;-79
2022/10/20 01:11:29;;;;;;;15.80;8.53;;;;;;;;;;5038813;28;20030;-79
2022/10/20 01:14:04;;;;;;;19.33;9.13;;;;;;;;;;5045378;28;20032;-79
2022/10/20 01:16:33;;;;;;;13.17;8.77;;;;;;;;;;5040727;28;20032;-79
2022/10/20 01:19:02;;;;;;;18.40;8.00;;;;;;;;;;5037191;28;20029;-79
2022/10/20 01:21:31;;;;;;;12.23;7.90;;;;;;;;;;5057346;28;20033;-79
2022/10/20 01:24:15;;;;;;;13.80;9.00;;;;;;;;;;5040355;28;20028;-78
2022/10/20 01:26:41;;;;;;;13.90;8.23;;;;;;;;;;5039537;28;20064;-78
2022/10/20 01:29:23;;;;;;;13.30;9.03;;;;;;;;;;5039518;28;20033;-78
2022/10/20 01:31:58;;;;;;;14.43;8.73;;;;;;;;;;5039731;28;20055;-79
2022/10/20 01:34:44;;;;;;;15.57;9.03;;;;;;;;;;5039637;28;20033;-79
2022/10/20 01:37:10;;;;;;;23.43;8.93;;;;;;;;;;5032885;28;20116;-79
2022/10/20 01:39:45;;;;;;;16.20;8.80;;;;;;;;;;5030029;28;20667;-78
2022/10/20 01:42:14;;;;;;;13.93;7.47;;;;;;;;;;5035492;28;20025;-78
2022/10/20 01:44:41;;;;;;;11.47;8.10;;;;;;;;;;5034793;28;20033;-78
2022/10/20 01:47:09;;;;;;;11.07;7.13;;;;;;;;;;5036748;28;20040;-78
2022/10/20 01:49:35;;;;;;;19.10;7.37;;;;;;;;;;5036890;28;20033;-78
2022/10/20 01:52:02;;;;;;;18.07;7.23;;;;;;;;;;5034828;28;20122;-78
2022/10/20 01:54:29;;;;;;;12.53;7.03;;;;;;;;;;5035855;28;20047;-78
2022/10/20 01:56:58;;;;;;;12.90;7.37;;;;;;;;;;5029804;28;20036;-79
2022/10/20 01:59:33;;;;;;;12.00;7.50;;;;;;;;;;5035972;28;20020;-79
2022/10/20 02:02:07;;;;;;;14.00;7.27;;;;;;;;;;5036610;28;20025;-78
2022/10/20 02:04:39;;;;;;;14.73;8.27;;;;;;;;;;5035491;28;20059;-78
2022/10/20 02:07:11;;;;;;;13.88;7.90;;;;;;;;;;5052681;28;20040;-77
2022/10/20 02:09:40;;;;;;;12.00;7.45;;;;;;;;;;5030914;28;20068;-78
2022/10/20 02:12:09;;;;;;;13.03;7.67;;;;;;;;;;5036753;28;20082;-78
2022/10/20 02:14:35;;;;;;;11.83;7.53;;;;;;;;;;5038514;28;20028;-78
2022/10/20 02:17:10;;;;;;;11.27;7.27;;;;;;;;;;5035706;28;20021;-78
2022/10/20 02:19:38;;;;;;;13.90;7.47;;;;;;;;;;5051908;28;20025;-78
2022/10/20 02:22:06;;;;;;;15.13;8.20;;;;;;;;;;5049916;28;20036;-79
2022/10/20 02:24:35;;;;;;;15.73;7.03;;;;;;;;;;5036391;28;20029;-79
2022/10/20 02:27:02;;;;;;;22.20;7.93;;;;;;;;;;5036346;28;20025;-78
2022/10/20 02:29:31;;;;;;;13.63;7.20;;;;;;;;;;5035998;28;20044;-78
2022/10/20 02:32:00;;;;;;;13.93;7.63;;;;;;;;;;5034136;28;20441;-78
2022/10/20 02:34:26;;;;;;;16.07;7.33;;;;;;;;;;5035442;28;20025;-79
2022/10/20 02:36:54;;;;;;;10.37;7.63;;;;;;;;;;5034046;28;20056;-78
2022/10/20 02:39:20;;;;;;;10.20;7.20;;;;;;;;;;5050122;28;20040;-79
2022/10/20 02:41:46;;;;;;;9.97;7.50;;;;;;;;;;5032232;28;20460;-78
2022/10/20 02:44:14;;;;;;;8.07;6.70;;;;;;;;;;5032184;28;20512;-78
2022/10/20 02:46:40;;;;;;;16.43;7.27;;;;;;;;;;5035930;28;20037;-79
2022/10/20 02:49:07;;;;;;;12.30;6.73;;;;;;;;;;5051413;28;20033;-78
2022/10/20 02:51:33;;;;;;;11.50;6.80;;;;;;;;;;5036104;28;20033;-78
2022/10/20 02:53:59;;;;;;;11.83;6.87;;;;;;;;;;5034094;28;20032;-78
2022/10/20 02:56:25;;;;;;;12.70;7.07;;;;;;;;;;5035793;28;20032;-78
2022/10/20 02:58:51;;;;;;;12.80;6.80;;;;;;;;;;5051258;28;20025;-78
2022/10/20 03:01:17;;;;;;;15.07;7.60;;;;;;;;;;5034680;28;20029;-79
2022/10/20 03:03:43;;;;;;;12.63;6.97;;;;;;;;;;5032241;28;20060;-78
2022/10/20 03:06:13;;;;;;;13.17;6.43;;;;;;;;;;5035859;28;20033;-78
2022/10/20 03:08:39;;;;;;;11.23;5.80;;;;;;;;;;5033481;28;20103;-79
2022/10/20 03:11:05;;;;;;;13.03;7.63;;;;;;;;;;5051418;28;20501;-78
2022/10/20 03:13:32;;;;;;;8.97;6.33;;;;;;;;;;5033921;28;20037;-78
2022/10/20 03:15:58;;;;;;;17.93;7.47;;;;;;;;;;5034400;28;20025;-78
2022/10/20 03:18:24;;;;;;;11.87;7.97;;;;;;;;;;5035019;28;20856;-78
2022/10/20 03:20:51;;;;;;;12.70;6.40;;;;;;;;;;5034529;28;20037;-78
2022/10/20 03:23:17;;;;;;;8.80;5.20;;;;;;;;;;5031623;28;20079;-78
2022/10/20 03:25:43;;;;;;;12.67;6.53;;;;;;;;;;5034424;28;20094;-78
2022/10/20 03:28:09;;;;;;;12.50;6.70;;;;;;;;;;5035402;28;20039;-78
2022/10/20 03:30:35;;;;;;;11.07;6.33;;;;;;;;;;5035254;28;20044;-78
2022/10/20 03:33:01;;;;;;;8.87;6.10;;;;;;;;;;5033159;28;20032;-78
2022/10/20 03:35:27;;;;;;;11.83;6.67;;;;;;;;;;5039052;28;20037;-79
2022/10/20 03:37:53;;;;;;;11.00;6.50;;;;;;;;;;5055069;28;20065;-79
2022/10/20 03:40:19;;;;;;;10.20;6.20;;;;;;;;;;5037319;28;20414;-79
2022/10/20 03:42:45;;;;;;;11.50;6.40;;;;;;;;;;5057943;28;20082;-78
2022/10/20 03:45:11;;;;;;;7.17;5.53;;;;;;;;;;5037564;28;20028;-78
2022/10/20 03:47:37;;;;;;;11.13;6.30;;;;;;;;;;5037145;28;20460;-78
2022/10/20 03:50:03;;;;;;;9.87;6.07;;;;;;;;;;5037221;28;20025;-79
2022/10/20 03:52:29;;;;;;;11.90;6.37;;;;;;;;;;5037555;28;20036;-78
2022/10/20 03:54:55;;;;;;;14.37;5.83;;;;;;;;;;5040135;28;20458;-78
2022/10/20 03:57:21;;;;;;;11.43;5.90;;;;;;;;;;5037395;28;20025;-78
2022/10/20 03:59:47;;;;;;;9.77;5.60;;;;;;;;;;5037083;28;20029;-79
2022/10/20 04:02:22;;;;;;;7.60;5.53;;;;;;;;;;5042001;28;20033;-78
2022/10/20 04:04:48;;;;;;;12.37;6.23;;;;;;;;;;5023804;28;20037;-79
2022/10/20 04:07:14;;;;;;;11.23;5.77;;;;;;;;;;5040252;28;20090;-78
2022/10/20 04:09:40;;;;;;;11.10;5.63;;;;;;;;;;5041248;28;20029;-78
2022/10/20 04:12:08;;;;;;;7.63;5.80;;;;;;;;;;5058411;28;20327;-78
2022/10/20 04:14:34;;;;;;;9.67;5.67;;;;;;;;;;5026893;28;20065;-78
2022/10/20 04:17:00;;;;;;;9.97;6.60;;;;;;;;;;5045466;28;20021;-78
2022/10/20 04:19:26;;;;;;;9.73;6.17;;;;;;;;;;5040873;28;20029;-79
2022/10/20 04:21:52;;;;;;;11.13;5.97;;;;;;;;;;5041055;28;20338;-78
2022/10/20 04:24:18;;;;;;;12.53;6.10;;;;;;;;;;5045459;28;20170;-78
2022/10/20 04:26:43;;;;;;;12.03;6.07;;;;;;;;;;5041074;28;20021;-79
2022/10/20 04:29:09;;;;;;;7.47;5.63;;;;;;;;;;5040921;28;20392;-78
2022/10/20 04:31:35;;;;;;;12.03;5.87;;;;;;;;;;5040570;28;20025;-78
2022/10/20 04:34:01;;;;;;;7.57;5.43;;;;;;;;;;5040865;28;20025;-78
2022/10/20 04:36:27;;;;;;;10.90;6.53;;;;;;;;;;5040456;28;20524;-78
2022/10/20 04:38:53;;;;;;;13.60;5.80;;;;;;;;;;5042893;28;20116;-78
2022/10/20 04:41:19;;;;;;;11.40;5.70;;;;;;;;;;5040416;28;20025;-79
2022/10/20 04:43:49;;;;;;;9.57;5.40;;;;;;;;;;5041013;28;20029;-79
2022/10/20 04:46:15;;;;;;;7.20;5.70;;;;;;;;;;5041887;28;20422;-79
2022/10/20 04:48:43;;;;;;;16.97;6.00;;;;;;;;;;5041232;28;20036;-79
2022/10/20 04:51:10;;;;;;;15.53;5.57;;;;;;;;;;5023398;28;20525;-79
2022/10/20 04:53:37;;;;;;;9.47;5.20;;;;;;;;;;5034054;28;20033;-78
2022/10/20 04:56:07;;;;;;;9.40;5.47;;;;;;;;;;5041573;28;20029;-78
2022/10/20 04:58:34;;;;;;;7.53;5.23;;;;;;;;;;5041137;28;20025;-79
2022/10/20 05:01:04;;;;;;;11.90;5.67;;;;;;;;;;5038883;28;20026;-79
2022/10/20 05:03:30;;;;;;;13.37;5.83;;;;;;;;;;5041078;28;20032;-79
2022/10/20 05:06:09;;;;;;;8.93;5.00;;;;;;;;;;5040299;28;20032;-78
2022/10/20 05:08:35;;;;;;;12.27;5.57;;;;;;;;;;5057514;28;20029;-79
2022/10/20 05:11:03;;;;;;;11.53;6.23;;;;;;;;;;5041161;28;20029;-78
2022/10/20 05:13:29;;;;;;;9.57;5.67;;;;;;;;;;5041517;28;20044;-79
2022/10/20 05:15:55;;;;;;;10.83;5.20;;;;;;;;;;5040308;28;20029;-78
2022/10/20 05:18:21;;;;;;;11.50;5.17;;;;;;;;;;5039649;28;20100;-79
2022/10/20 05:20:47;;;;;;;8.53;5.03;;;;;;;;;;5040244;28;20321;-79
2022/10/20 05:23:13;;;;;;;10.90;5.27;;;;;;;;;;5039841;28;20025;-79
2022/10/20 05:25:39;;;;;;;16.17;5.53;;;;;;;;;;5039978;28;20032;-79
2022/10/20 05:28:08;;;;;;;8.50;5.20;;;;;;;;;;5039982;28;20082;-79
2022/10/20 05:30:34;;;;;;;13.70;6.57;;;;;;;;;;5039358;28;20029;-78
2022/10/20 05:33:00;;;;;;;7.83;5.70;;;;;;;;;;5040326;28;20033;-79
2022/10/20 05:35:27;;;;;;;17.23;5.90;;;;;;;;;;5039523;28;20417;-78
2022/10/20 05:37:53;;;;;;;9.03;6.23;;;;;;;;;;5057039;28;20041;-78
2022/10/20 05:40:19;;;;;;;10.67;5.77;;;;;;;;;;5039993;28;20039;-79
2022/10/20 05:42:45;;;;;;;12.30;6.37;;;;;;;;;;5039537;28;20025;-79
2022/10/20 05:45:11;;;;;;;12.40;6.10;;;;;;;;;;5039328;28;20039;-79
2022/10/20 05:47:37;;;;;;;12.37;5.87;;;;;;;;;;5039717;28;20035;-78
2022/10/20 05:50:04;;;;;;;9.73;6.40;;;;;;;;;;5039605;28;20048;-79
2022/10/20 05:52:30;;;;;;;11.90;5.90;;;;;;;;;;5039278;28;20029;-79
2022/10/20 05:54:56;;;;;;;7.40;5.80;;;;;;;;;;5038956;28;20032;-79
2022/10/20 05:57:22;;;;;;;15.57;6.87;;;;;;;;;;5038986;28;20051;-79
2022/10/20 05:59:48;;;;;;;12.97;6.30;;;;;;;;;;5039467;28;20059;-78
2022/10/20 06:02:14;;;;;;;12.33;6.20;;;;;;;;;;5039151;28;20032;-79
2022/10/20 06:04:40;;;;;;;12.37;6.60;;;;;;;;;;5038836;28;20498;-80
2022/10/20 06:07:08;;;;;;;12.37;6.47;;;;;;;;;;5039120;28;20024;-79
2022/10/20 06:09:35;;;;;;;10.27;5.93;;;;;;;;;;5036861;28;20451;-79
2022/10/20 06:12:01;;;;;;;14.23;6.60;;;;;;;;;;5038869;28;20029;-79
2022/10/20 06:14:27;;;;;;;13.13;6.20;;;;;;;;;;5039505;28;20087;-79
2022/10/20 06:16:54;;;;;;;9.17;6.17;;;;;;;;;;5051395;28;20086;-79
2022/10/20 06:19:23;;;;;;;12.83;6.73;;;;;;;;;;5038924;28;20087;-79
2022/10/20 06:21:52;;;;;;;9.33;6.20;;;;;;;;;;5039083;28;20029;-80
2022/10/20 06:24:18;;;;;;;8.87;5.97;;;;;;;;;;5039521;28;20044;-80
2022/10/20 06:26:45;;;;;;;11.73;6.23;;;;;;;;;;5038833;28;20040;-80
2022/10/20 06:29:12;;;;;;;10.67;6.50;;;;;;;;;;5038118;28;20039;-79
2022/10/20 06:31:48;;;;;;;13.07;6.63;;;;;;;;;;5038867;28;20095;-78
2022/10/20 06:34:18;;;;;;;12.23;7.03;;;;;;;;;;5039102;28;20056;-78
2022/10/20 06:36:45;;;;;;;9.90;6.63;;;;;;;;;;5039756;28;20025;-78
2022/10/20 06:39:12;;;;;;;17.80;7.27;;;;;;;;;;5040281;28;20025;-78
2022/10/20 06:41:38;;;;;;;10.70;6.50;;;;;;;;;;5039671;28;20036;-79
2022/10/20 06:44:04;;;;;;;13.17;6.57;;;;;;;;;;5038426;28;20020;-78
2022/10/20 06:46:31;;;;;;;11.53;6.03;;;;;;;;;;5039323;28;20175;-79
2022/10/20 06:49:00;;;;;;;9.43;6.00;;;;;;;;;;5038843;28;20025;-79
2022/10/20 06:51:26;;;;;;;12.83;6.63;;;;;;;;;;5038695;28;20052;-78
2022/10/20 06:53:55;;;;;;;11.50;6.27;;;;;;;;;;5038254;28;20025;-78
2022/10/20 06:56:24;;;;;;;15.57;7.30;;;;;;;;;;5038585;28;20021;-78
2022/10/20 06:58:52;;;;;;;13.10;5.80;;;;;;;;;;5056999;28;20051;-78
2022/10/20 07:01:24;;;;;;;14.03;7.37;;;;;;;;;;5040703;28;20025;-79
2022/10/20 07:03:52;;;;;;;14.43;7.32;;;;;;;;;;5038690;28;20342;-79
2022/10/20 07:06:28;;;;;;;9.30;6.27;;;;;;;;;;5041670;28;20040;-79
2022/10/20 07:08:57;;;;;;;15.50;7.33;;;;;;;;;;5038029;28;20460;-79
2022/10/20 07:11:25;;;;;;;11.30;6.00;;;;;;;;;;5055397;28;20025;-78
2022/10/20 07:13:52;;;;;;;10.53;7.20;;;;;;;;;;5038099;28;20032;-78
2022/10/20 07:16:19;;;;;;;11.00;5.73;;;;;;;;;;5037811;28;20517;-79
2022/10/20 07:18:46;;;;;;;11.77;7.10;;;;;;;;;;5037922;28;20052;-78
2022/10/20 07:21:13;;;;;;;10.10;6.57;;;;;;;;;;5037779;28;20121;-79
2022/10/20 07:23:40;;;;;;;13.80;7.27;;;;;;;;;;5038750;28;20040;-79
2022/10/20 07:26:07;;;;;;;14.17;6.50;;;;;;;;;;5038791;28;20041;-79
2022/10/20 07:28:34;;;;;;;12.47;7.50;;;;;;;;;;5041019;28;20021;-79
2022/10/20 07:31:05;;;;;;;14.40;6.97;;;;;;;;;;5037502;28;20079;-79
2022/10/20 07:33:31;;;;;;;12.63;6.90;;;;;;;;;;5037582;28;20044;-78
2022/10/20 07:35:57;;;;;;;8.43;6.17;;;;;;;;;;5033754;28;20053;-78
2022/10/20 07:38:24;;;;;;;9.90;6.33;;;;;;;;;;5033441;28;20907;-78
2022/10/20 07:40:50;;;;;;;13.03;6.70;;;;;;;;;;5036494;28;20032;-78
2022/10/20 07:43:18;;;;;;;12.03;6.47;;;;;;;;;;5040365;28;20086;-79
2022/10/20 07:45:44;;;;;;;10.50;6.90;;;;;;;;;;5039271;28;20024;-78
2022/10/20 07:48:10;;;;;;;12.00;7.03;;;;;;;;;;5038959;28;20143;-78
2022/10/20 07:50:39;;;;;;;12.33;7.30;;;;;;;;;;5039600;28;20040;-79
2022/10/20 07:53:05;;;;;;;13.53;8.63;;;;;;;;;;5039424;28;20029;-79
2022/10/20 07:55:31;;;;;;;12.93;7.67;;;;;;;;;;5039860;28;20033;-78
2022/10/20 07:57:57;;;;;;;14.23;7.27;;;;;;;;;;5039507;28;20040;-79
2022/10/20 08:00:23;;;;;;;12.93;7.43;;;;;;;;;;5031851;28;20017;-78
2022/10/20 08:02:49;;;;;;;12.50;7.93;;;;;;;;;;5035213;28;20021;-79
2022/10/20 08:05:15;;;;;;;12.03;8.43;;;;;;;;;;5037845;28;20036;-79
2022/10/20 08:07:41;;;;;;;11.70;7.27;;;;;;;;;;5053534;28;21892;-79
2022/10/20 08:10:07;;;;;;;13.90;7.17;;;;;;;;;;5035646;28;20120;-78
2022/10/20 08:12:37;;;;;;;13.33;7.10;;;;;;;;;;5030420;28;20033;-79
2022/10/20 08:15:03;;;;;;;10.47;6.43;;;;;;;;;;5034062;28;20025;-79
2022/10/20 08:17:29;;;;;;;12.90;7.83;;;;;;;;;;5032479;28;20158;-79
2022/10/20 08:19:55;;;;;;;11.97;7.40;;;;;;;;;;5038784;28;20025;-79
2022/10/20 08:22:21;;;;;;;9.37;6.30;;;;;;;;;;5038970;28;20071;-78
2022/10/20 08:24:47;;;;;;;13.43;7.10;;;;;;;;;;5038279;28;20362;-78
2022/10/20 08:27:13;;;;;;;10.10;7.57;;;;;;;;;;5039979;28;20048;-79
2022/10/20 08:29:40;;;;;;;8.83;6.50;;;;;;;;;;5054612;28;20037;-79
2022/10/20 08:32:06;;;;;;;10.60;6.43;;;;;;;;;;5036877;28;20056;-78
2022/10/20 08:34:32;;;;;;;14.13;7.17;;;;;;;;;;5035882;28;20036;-78
2022/10/20 08:36:59;;;;;;;14.87;7.60;;;;;;;;;;5038945;28;20029;-79
2022/10/20 08:39:25;;;;;;;10.63;6.73;;;;;;;;;;5055376;28;20029;-79
2022/10/20 08:41:51;;;;;;;10.20;7.37;;;;;;;;;;5060083;28;20021;-79
2022/10/20 08:44:37;;;;;;;15.77;8.13;;;;;;;;;;5033072;28;20097;-79
2022/10/20 08:47:06;;;;;;;11.53;6.97;;;;;;;;;;5033863;28;20036;-78
2022/10/20 08:49:34;;;;;;;9.60;6.37;;;;;;;;;;5037341;28;20025;-79
2022/10/20 08:52:00;;;;;;;9.63;6.00;;;;;;;;;;5054235;28;20039;-78
2022/10/20 08:54:27;;;;;;;11.20;6.77;;;;;;;;;;5037762;28;20094;-79
2022/10/20 08:56:53;;;;;;;11.13;6.90;;;;;;;;;;5032381;28;20079;-79
2022/10/20 08:59:37;;;;;;;16.23;6.83;;;;;;;;;;5038120;28;20047;-79
2022/10/20 09:02:08;;;;;;;12.77;7.90;;;;;;;;;;5055120;28;20029;-79
2022/10/20 09:04:36;;;;;;;10.27;5.80;;;;;;;;;;5038079;28;20033;-78
2022/10/20 09:07:05;;;;;;;12.33;7.43;;;;;;;;;;5052079;28;20460;-79
2022/10/20 09:09:31;;;;;;;10.97;6.53;;;;;;;;;;5030313;28;20036;-79
2022/10/20 09:12:02;;;;;;;12.93;7.90;;;;;;;;;;5037156;28;20025;-78
2022/10/20 09:14:29;;;;;;;12.70;7.07;;;;;;;;;;5037996;28;20044;-79
2022/10/20 09:16:55;;;;;;;10.83;7.57;;;;;;;;;;5058274;28;20032;-78
2022/10/20 09:19:22;;;;;;;12.47;6.93;;;;;;;;;;5039025;28;20047;-79
2022/10/20 09:21:51;;;;;;;16.07;8.50;;;;;;;;;;5039173;28;20293;-78
2022/10/20 09:24:18;;;;;;;14.77;6.93;;;;;;;;;;5056900;28;20076;-79
2022/10/20 09:26:48;;;;;;;14.53;6.77;;;;;;;;;;5037770;28;20365;-79
2022/10/20 09:29:14;;;;;;;9.48;6.20;;;;;;;;;;5054105;28;20028;-79
2022/10/20 09:31:52;;;;;;;18.13;7.57;;;;;;;;;;5038276;28;20033;-79
2022/10/20 09:34:25;;;;;;;16.30;6.13;;;;;;;;;;5037567;28;20060;-78
2022/10/20 09:37:02;;;;;;;18.02;6.88;;;;;;;;;;5039417;28;20442;-79
2022/10/20 09:39:29;;;;;;;9.93;6.63;;;;;;;;;;5040289;28;20108;-79
2022/10/20 09:42:00;;;;;;;12.27;6.53;;;;;;;;;;5057269;28;20485;-79
2022/10/20 09:44:26;;;;;;;9.77;6.20;;;;;;;;;;5043078;28;20029;-79
2022/10/20 09:46:54;;;;;;;14.98;6.55;;;;;;;;;;5040991;28;20060;-80
2022/10/20 09:49:32;;;;;;;12.75;6.45;;;;;;;;;;5060364;28;20495;-79
2022/10/20 09:51:59;;;;;;;11.33;6.93;;;;;;;;;;5041284;28;20794;-79
2022/10/20 09:54:25;;;;;;;13.25;7.40;;;;;;;;;;5039316;28;20025;-79
2022/10/20 09:56:52;;;;;;;13.70;7.50;;;;;;;;;;5039795;28;20029;-79
2022/10/20 09:59:22;;;;;;;16.73;8.52;;;;;;;;;;5039224;28;20025;-79
2022/10/20 10:01:56;;;;;;;13.77;8.10;;;;;;;;;;5039350;28;20438;-78
2022/10/20 10:04:30;;;;;;;17.43;8.23;;;;;;;;;;5038539;28;20029;-79
2022/10/20 10:06:57;;;;;;;12.60;8.67;;;;;;;;;;5039400;28;20056;-80
2022/10/20 10:09:26;;;;;;;17.83;9.93;;;;;;;;;;5039318;28;20033;-79
2022/10/20 10:11:59;;;;;;;12.90;8.93;;;;;;;;;;5039336;28;20025;-79
2022/10/20 10:14:26;;;;;;;13.67;9.77;;;;;;;;;;5039265;28;20373;-79
2022/10/20 10:16:52;;;;;;;13.23;9.10;;;;;;;;;;5038940;28;20036;-80
2022/10/20 10:19:20;;;;;;;18.27;8.67;;;;;;;;;;5057042;28;20025;-79
2022/10/20 10:21:48;;;;;;;22.87;9.50;;;;;;;;;;5025716;28;20025;-79
2022/10/20 10:24:28;;;;;;;14.13;9.13;;;;;;;;;;5038910;28;20024;-81
2022/10/20 10:26:55;;;;;;;17.20;8.80;;;;;;;;;;5042178;28;20029;-79
2022/10/20 10:29:27;;;;;;;17.37;8.70;;;;;;;;;;5038626;28;20029;-79
2022/10/20 10:31:58;;;;;;;15.82;9.43;;;;;;;;;;5039017;28;20055;-79
2022/10/20 10:34:40;;;;;;;15.97;9.77;;;;;;;;;;5038513;28;20055;-78
2022/10/20 10:37:07;;;;;;;14.77;9.27;;;;;;;;;;5042179;28;20032;-79
2022/10/20 10:39:35;;;;;;;16.40;9.90;;;;;;;;;;5038367;28;20025;-79
2022/10/20 10:42:18;;;;;;;18.27;10.97;;;;;;;;;;5038506;28;20404;-79
2022/10/20 10:45:07;;;;;;;14.97;11.40;;;;;;;;;;5038376;28;20055;-79
2022/10/20 10:47:36;;;;;;;17.87;10.13;;;;;;;;;;5011292;28;20037;-78
2022/10/20 10:50:14;;;;;;;18.30;10.80;;;;;;;;;;5038186;28;20028;-79
2022/10/20 10:52:40;;;;;;;20.57;12.37;;;;;;;;;;5038245;28;20025;-79
2022/10/20 10:55:16;;;;;;;18.37;11.17;;;;;;;;;;5038229;28;20040;-80
2022/10/20 10:57:45;;;;;;;20.37;11.67;;;;;;;;;;5038067;28;20052;-79
2022/10/20 11:00:14;;;;;;;19.30;11.73;;;;;;;;;;5037941;28;20028;-79
2022/10/20 11:03:00;;;;;;;24.40;11.33;;;;;;;;;;5055808;28;20136;-79
2022/10/20 11:05:45;;;;;;;17.27;13.03;;;;;;;;;;5040661;28;20032;-79
2022/10/20 11:08:14;;;;;;;19.13;13.10;;;;;;;;;;5038836;28;20040;-79
2022/10/20 11:10:53;;;;;;;19.33;12.27;;;;;;;;;;5037819;28;20112;-79
2022/10/20 11:13:27;;;;;;;21.63;12.60;;;;;;;;;;5041302;28;20064;-78
2022/10/20 11:15:56;;;;;;;19.33;13.23;;;;;;;;;;5037388;28;20079;-79
2022/10/20 11:18:31;;;;;;;20.83;13.67;;;;;;;;;;5024230;28;20442;-79
2022/10/20 11:21:09;;;;;;;22.27;14.70;;;;;;;;;;5037647;28;20454;-79
2022/10/20 11:23:54;;;;;;;19.00;12.60;;;;;;;;;;5042354;28;20025;-79
2022/10/20 11:26:26;;;;;;;19.53;13.70;;;;;;;;;;5038259;28;20029;-79
2022/10/20 11:28:53;;;;;;;24.80;14.40;;;;;;;;;;5038502;28;20450;-78
2022/10/20 11:31:22;;;;;;;23.20;14.77;;;;;;;;;;5038369;28;20028;-79
2022/10/20 11:33:51;;;;;;;22.83;16.03;;;;;;;;;;5037871;28;20033;-78
2022/10/20 11:36:18;;;;;;;20.63;15.13;;;;;;;;;;5038655;28;20523;-78
2022/10/20 11:38:47;;;;;;;22.47;14.53;;;;;;;;;;5042473;28;20033;-79
2022/10/20 11:41:23;;;;;;;19.13;14.07;;;;;;;;;;5055493;28;20036;-78
2022/10/20 11:44:04;;;;;;;23.00;14.77;;;;;;;;;;5036484;28;20025;-78
2022/10/20 11:46:33;;;;;;;25.43;15.13;;;;;;;;;;5043785;28;20025;-78
2022/10/20 11:48:59;;;;;;;22.83;14.80;;;;;;;;;;5036655;28;20036;-79
2022/10/20 11:51:31;;;;;;;18.53;14.87;;;;;;;;;;5038026;28;20029;-78
2022/10/20 11:54:05;;;;;;;28.80;15.95;;;;;;;;;;5037770;28;20040;-79
2022/10/20 11:56:50;;;;;;;26.33;15.60;;;;;;;;;;5053994;28;20449;-78
2022/10/20 11:59:16;;;;;;;22.50;15.10;;;;;;;;;;5037541;28;20106;-78
2022/10/20 12:02:01;;;;;;;20.83;15.33;;;;;;;;;;5054228;28;20028;-79
2022/10/20 12:04:48;;;;;;;22.17;16.30;;;;;;;;;;5037256;28;20029;-79
2022/10/20 12:07:14;;;;;;;21.83;14.00;;;;;;;;;;5037177;28;20452;-78
2022/10/20 12:09:43;;;;;;;23.10;15.27;;;;;;;;;;5037630;28;20112;-78
2022/10/20 12:12:22;;;;;;;22.57;14.90;;;;;;;;;;5037433;28;20116;-78
2022/10/20 12:15:11;;;;;;;23.63;16.17;;;;;;;;;;5037255;28;20029;-78
2022/10/20 12:17:41;;;;;;;25.50;16.47;;;;;;;;;;5028890;28;20066;-78
2022/10/20 12:20:22;;;;;;;23.53;15.67;;;;;;;;;;5031998;28;20036;-78
2022/10/20 12:22:50;;;;;;;26.73;17.30;;;;;;;;;;5043874;28;20029;-78
2022/10/20 12:25:19;;;;;;;27.43;16.00;;;;;;;;;;5054207;28;20527;-78
2022/10/20 12:27:47;;;;;;;22.07;16.33;;;;;;;;;;5059444;28;20028;-78
2022/10/20 12:30:22;;;;;;;22.53;15.93;;;;;;;;;;5043203;28;20032;-78
2022/10/20 12:32:53;;;;;;;23.27;16.20;;;;;;;;;;5042805;28;20033;-79
2022/10/20 12:35:19;;;;;;;22.87;16.77;;;;;;;;;;5040752;28;20041;-78
2022/10/20 12:37:54;;;;;;;27.27;17.17;;;;;;;;;;5040355;28;20132;-78
2022/10/20 12:40:25;;;;;;;27.97;16.20;;;;;;;;;;5040774;28;20033;-78
2022/10/20 12:42:53;;;;;;;26.20;15.93;;;;;;;;;;5040622;28;20434;-78
2022/10/20 12:45:19;;;;;;;20.27;15.80;;;;;;;;;;5040498;28;20431;-78
2022/10/20 12:47:48;;;;;;;21.40;14.93;;;;;;;;;;5040538;28;20033;-78
2022/10/20 12:50:17;;;;;;;22.80;15.57;;;;;;;;;;5040771;28;20056;-78
2022/10/20 12:52:44;;;;;;;21.33;15.23;;;;;;;;;;5040533;28;20123;-78
2022/10/20 12:55:18;;;;;;;20.57;14.00;;;;;;;;;;5039817;28;20033;-77
2022/10/20 12:57:45;;;;;;;20.77;13.10;;;;;;;;;;5040349;28;20040;-78
2022/10/20 13:00:20;;;;;;;21.47;13.43;;;;;;;;;;5057800;28;20021;-78
2022/10/20 13:02:48;;;;;;;18.27;12.43;;;;;;;;;;5040671;28;20456;-79
2022/10/20 13:05:14;;;;;;;21.33;14.20;;;;;;;;;;5040312;28;20460;-79
2022/10/20 13:07:46;;;;;;;20.60;13.93;;;;;;;;;;5057597;28;20029;-79
2022/10/20 13:10:33;;;;;;;17.55;13.00;;;;;;;;;;5041710;28;20033;-79
2022/10/20 13:13:02;;;;;;;21.50;14.70;;;;;;;;;;5039700;28;20114;-79
2022/10/20 13:15:34;;;;;;;22.50;14.90;;;;;;;;;;5040275;28;20040;-79
2022/10/20 13:18:06;;;;;;;30.25;15.70;;;;;;;;;;5042943;28;20029;-78
2022/10/20 13:20:35;;;;;;;22.73;14.98;;;;;;;;;;5057688;28;20090;-80
2022/10/20 13:23:01;;;;;;;21.50;14.03;;;;;;;;;;5040230;28;20052;-80
2022/10/20 13:25:28;;;;;;;21.47;13.07;;;;;;;;;;5041004;28;20473;-79
2022/10/20 13:28:02;;;;;;;21.60;13.93;;;;;;;;;;5041258;28;20036;-79
2022/10/20 13:30:29;;;;;;;19.75;13.38;;;;;;;;;;5059962;28;20446;-79
2022/10/20 13:33:00;;;;;;;21.13;14.18;;;;;;;;;;5040249;28;20029;-80
2022/10/20 13:35:31;;;;;;;21.08;13.90;;;;;;;;;;5041894;28;20044;-79
2022/10/20 13:38:25;;;;;;;22.08;14.05;;;;;;;;;;5037124;28;20044;-80
2022/10/20 13:41:08;;;;;;;20.58;14.75;;;;;;;;;;5032946;28;20045;-79
2022/10/20 13:43:34;;;;;;;22.27;13.70;;;;;;;;;;5035226;28;20024;-80
2022/10/20 13:46:07;;;;;;;21.17;11.50;;;;;;;;;;5056071;28;21814;-80
2022/10/20 13:48:39;;;;;;;18.60;11.63;;;;;;;;;;5053090;28;20057;-79
2022/10/20 13:51:10;;;;;;;17.25;11.77;;;;;;;;;;5037640;28;20033;-80
2022/10/20 13:53:39;;;;;;;17.33;10.88;;;;;;;;;;5032681;28;20087;-79
2022/10/20 13:56:06;;;;;;;22.58;10.75;;;;;;;;;;5037834;28;20032;-79
2022/10/20 13:58:32;;;;;;;14.98;10.93;;;;;;;;;;5037710;28;20036;-80
2022/10/20 14:01:00;;;;;;;18.55;12.18;;;;;;;;;;5032877;28;20202;-80
2022/10/20 14:03:27;;;;;;;16.25;11.10;;;;;;;;;;5057801;28;20115;-79
2022/10/20 14:05:53;;;;;;;16.52;11.88;;;;;;;;;;5058675;28;20441;-80
2022/10/20 14:08:20;;;;;;;21.13;12.50;;;;;;;;;;5036445;28;20040;-79
2022/10/20 14:10:49;;;;;;;20.00;11.77;;;;;;;;;;5036449;28;20028;-79
2022/10/20 14:13:16;;;;;;;22.73;11.77;;;;;;;;;;5036607;28;20029;-79
2022/10/20 14:15:53;;;;;;;17.70;12.00;;;;;;;;;;5038115;28;20033;-79
2022/10/20 14:18:21;;;;;;;19.98;11.25;;;;;;;;;;5051570;28;20438;-80
2022/10/20 14:20:55;;;;;;;23.20;10.70;;;;;;;;;;5037974;28;20175;-79
2022/10/20 14:23:22;;;;;;;18.42;10.85;;;;;;;;;;5043508;28;20029;-80
2022/10/20 14:25:49;;;;;;;17.67;10.45;;;;;;;;;;5037011;28;20491;-79
2022/10/20 14:28:18;;;;;;;15.57;10.88;;;;;;;;;;5036228;28;20029;-80
2022/10/20 14:30:44;;;;;;;15.85;11.35;;;;;;;;;;5035750;28;20078;-79
2022/10/20 14:33:15;;;;;;;17.73;11.70;;;;;;;;;;5052236;28;20029;-80
2022/10/20 14:35:43;;;;;;;16.83;11.75;;;;;;;;;;5055599;28;20453;-79
2022/10/20 14:38:18;;;;;;;16.25;10.75;;;;;;;;;;5037179;28;20036;-80